Time;durP1;ratioP1;P1;durP2;ratioP2;P2;SDS_P1;SDS_P2;PMS_P1;PMS_P2;Temp;Humidity;BMP_temperature;BMP_pressure;BME280_temperature;BME280_humidity;BME280_pressure;Samples;Min_cycle;Max_cycle;Signal;HPM_P1;HPM_P2
2022/08/27 00:00:49;;;;;;;7.73;4.50;;;14.10;90.40;;;;;;5032558;28;20180;-78
2022/08/27 00:03:17;;;;;;;7.30;4.60;;;14.00;90.20;;;;;;5041663;28;20184;-77
2022/08/27 00:05:45;;;;;;;7.77;4.47;;;14.10;90.20;;;;;;5031397;28;20234;-80
2022/08/27 00:08:13;;;;;;;6.80;4.73;;;14.20;90.30;;;;;;5025408;28;20222;-80
2022/08/27 00:10:41;;;;;;;10.43;4.40;;;14.30;90.20;;;;;;5018651;28;20173;-77
2022/08/27 00:13:08;;;;;;;9.30;4.97;;;14.40;89.60;;;;;;5025451;28;20182;-81
2022/08/27 00:15:36;;;;;;;7.40;4.63;;;14.70;89.40;;;;;;5026397;28;20194;-82
2022/08/27 00:18:04;;;;;;;8.67;4.70;;;15.00;89.10;;;;;;5040668;28;20580;-85
2022/08/27 00:20:31;;;;;;;5.97;4.30;;;15.00;88.40;;;;;;5034297;28;20184;-76
2022/08/27 00:22:59;;;;;;;7.57;3.97;;;15.20;88.30;;;;;;5017216;28;20215;-80
2022/08/27 00:25:27;;;;;;;6.70;3.90;;;15.20;87.90;;;;;;5046335;28;20223;-77
2022/08/27 00:27:54;;;;;;;4.63;2.97;;;15.30;87.70;;;;;;5019349;28;20235;-80
2022/08/27 00:30:23;;;;;;;4.40;2.43;;;15.70;87.60;;;;;;5035964;28;20184;-79
2022/08/27 00:32:50;;;;;;;6.60;2.37;;;15.80;86.70;;;;;;5014650;28;20276;-80
2022/08/27 00:35:18;;;;;;;3.20;1.87;;;15.80;85.00;;;;;;5044720;28;20653;-73
2022/08/27 00:37:46;;;;;;;4.00;1.83;;;15.90;84.30;;;;;;5024591;28;20178;-79
2022/08/27 00:40:18;;;;;;;6.07;1.80;;;15.80;84.80;;;;;;5019753;28;20220;-78
2022/08/27 00:42:46;;;;;;;5.30;1.60;;;15.70;84.50;;;;;;5029176;28;20183;-79
2022/08/27 00:45:20;;;;;;;6.27;1.60;;;15.70;85.30;;;;;;5039715;28;20213;-78
2022/08/27 00:47:56;;;;;;;6.00;1.80;;;15.70;85.10;;;;;;5029313;28;20180;-78
2022/08/27 00:50:46;;;;;;;2.50;1.67;;;15.70;85.30;;;;;;5039694;28;20586;-79
2022/08/27 00:53:17;;;;;;;4.43;1.80;;;15.60;85.00;;;;;;5023023;28;20189;-79
2022/08/27 00:55:59;;;;;;;2.83;1.90;;;15.50;85.10;;;;;;5019208;28;20582;-79
2022/08/27 00:58:35;;;;;;;6.90;2.10;;;15.50;86.30;;;;;;5046152;28;20180;-75
2022/08/27 01:01:06;;;;;;;6.93;2.17;;;15.40;86.70;;;;;;5037478;28;20271;-82
2022/08/27 01:03:34;;;;;;;4.47;2.20;;;15.30;86.80;;;;;;5044016;28;20173;-80
2022/08/27 01:06:04;;;;;;;5.37;2.53;;;15.20;87.50;;;;;;5047832;28;20227;-76
2022/08/27 01:08:36;;;;;;;6.50;2.57;;;15.10;88.80;;;;;;5043128;28;20272;-78
2022/08/27 01:11:04;;;;;;;5.20;2.83;;;15.00;89.40;;;;;;5039202;28;20192;-77
2022/08/27 01:13:33;;;;;;;6.27;2.70;;;14.90;89.90;;;;;;5023917;28;20547;-75
2022/08/27 01:16:02;;;;;;;6.23;2.27;;;14.90;90.40;;;;;;5039142;28;20185;-81
2022/08/27 01:18:32;;;;;;;3.83;2.10;;;14.90;90.30;;;;;;5029514;28;20185;-82
2022/08/27 01:21:26;;;;;;;3.70;2.00;;;15.00;90.20;;;;;;5044722;28;20184;-81
2022/08/27 01:24:01;;;;;;;6.13;2.23;;;14.90;90.00;;;;;;5023020;28;20231;-75
2022/08/27 01:26:30;;;;;;;3.47;2.10;;;14.90;89.80;;;;;;5034218;28;20600;-76
2022/08/27 01:28:58;;;;;;;5.90;2.20;;;14.80;90.00;;;;;;5017444;28;20195;-71
2022/08/27 01:31:28;;;;;;;6.13;2.37;;;14.80;90.00;;;;;;5028602;28;20220;-79
2022/08/27 01:34:02;;;;;;;3.53;1.70;;;14.90;90.40;;;;;;5027712;28;20184;-78
2022/08/27 01:36:29;;;;;;;4.33;1.60;;;15.10;90.20;;;;;;5030293;28;20243;-76
2022/08/27 01:38:56;;;;;;;3.10;1.73;;;15.00;89.30;;;;;;5031037;28;20185;-73
2022/08/27 01:41:25;;;;;;;4.23;1.93;;;15.20;88.90;;;;;;5035818;28;20255;-76
2022/08/27 01:43:53;;;;;;;2.47;1.60;;;15.80;89.00;;;;;;5032088;28;20200;-72
2022/08/27 01:46:26;;;;;;;5.57;1.80;;;16.20;87.00;;;;;;5030644;28;20238;-76
2022/08/27 01:48:53;;;;;;;5.53;2.17;;;16.70;87.60;;;;;;5037858;28;20579;-75
2022/08/27 01:51:21;;;;;;;3.63;1.53;;;16.90;85.30;;;;;;5042310;28;20194;-78
2022/08/27 01:53:49;;;;;;;6.37;1.77;;;17.20;84.60;;;;;;5035622;28;20210;-79
2022/08/27 01:56:17;;;;;;;3.17;1.63;;;17.30;84.30;;;;;;5041293;28;20204;-75
2022/08/27 01:58:44;;;;;;;3.47;1.70;;;17.20;83.10;;;;;;5034405;28;20183;-77
2022/08/27 02:01:15;;;;;;;6.70;1.60;;;17.30;83.80;;;;;;5039657;28;20190;-75
2022/08/27 02:03:43;;;;;;;2.20;1.23;;;17.60;83.00;;;;;;5046353;28;20533;-75
2022/08/27 02:06:11;;;;;;;3.67;1.20;;;17.30;80.80;;;;;;5048935;28;20214;-79
2022/08/27 02:08:39;;;;;;;2.33;1.33;;;17.50;82.60;;;;;;5041929;28;20187;-77
2022/08/27 02:11:07;;;;;;;5.33;1.63;;;17.50;82.20;;;;;;5042533;28;20527;-77
2022/08/27 02:13:35;;;;;;;5.03;1.63;;;18.00;80.70;;;;;;5052115;28;20271;-76
2022/08/27 02:16:03;;;;;;;4.57;1.17;;;18.10;80.00;;;;;;5037013;28;20191;-77
2022/08/27 02:18:30;;;;;;;2.30;1.07;;;18.00;81.70;;;;;;5055218;28;20337;-82
2022/08/27 02:20:57;;;;;;;3.20;1.20;;;17.80;79.70;;;;;;5037447;28;20194;-78
2022/08/27 02:23:25;;;;;;;3.93;1.20;;;17.60;79.10;;;;;;5056844;28;20557;-78
2022/08/27 02:25:52;;;;;;;4.33;1.30;;;18.00;80.20;;;;;;5046447;28;20232;-79
2022/08/27 02:28:20;;;;;;;1.97;0.83;;;17.90;77.30;;;;;;5044405;28;20188;-75
2022/08/27 02:30:47;;;;;;;3.23;1.20;;;18.30;77.80;;;;;;5049308;28;20189;-78
2022/08/27 02:33:15;;;;;;;4.00;1.20;;;18.40;77.10;;;;;;5037662;28;20192;-75
2022/08/27 02:35:43;;;;;;;3.37;0.83;;;18.80;75.60;;;;;;5045850;28;20654;-85
2022/08/27 02:38:12;;;;;;;3.33;1.23;;;19.10;74.50;;;;;;5043174;28;20184;-85
2022/08/27 02:40:40;;;;;;;1.60;0.80;;;19.60;74.10;;;;;;5047484;28;20241;-77
2022/08/27 02:43:08;;;;;;;2.00;0.90;;;19.10;72.70;;;;;;5032978;28;20275;-80
2022/08/27 02:45:36;;;;;;;3.80;0.97;;;18.80;75.20;;;;;;5035189;28;20216;-79
2022/08/27 02:48:05;;;;;;;3.63;1.00;;;18.90;74.70;;;;;;5044407;28;20180;-77
2022/08/27 02:50:32;;;;;;;2.03;1.00;;;18.80;73.70;;;;;;5037282;28;20180;-79
2022/08/27 02:53:01;;;;;;;1.70;1.00;;;18.80;73.90;;;;;;5040870;28;20183;-77
2022/08/27 02:55:28;;;;;;;1.37;0.83;;;18.60;74.00;;;;;;5037223;28;20192;-78
2022/08/27 02:57:56;;;;;;;1.70;0.77;;;18.30;74.50;;;;;;5040604;28;20187;-75
2022/08/27 03:00:27;;;;;;;2.37;0.90;;;18.30;76.00;;;;;;5034733;28;20701;-78
2022/08/27 03:02:56;;;;;;;2.00;0.73;;;18.20;75.90;;;;;;5038576;28;20240;-76
2022/08/27 03:05:24;;;;;;;2.07;0.77;;;18.20;75.60;;;;;;5031639;28;20720;-76
2022/08/27 03:07:51;;;;;;;2.80;1.00;;;18.20;75.10;;;;;;5035890;28;20623;-76
2022/08/27 03:10:20;;;;;;;3.87;0.90;;;18.00;75.90;;;;;;5040612;28;20172;-77
2022/08/27 03:12:48;;;;;;;1.60;0.80;;;18.20;73.20;;;;;;5038937;28;20275;-74
2022/08/27 03:15:17;;;;;;;1.80;1.00;;;18.30;76.30;;;;;;5035191;28;20180;-74
2022/08/27 03:20:32;;;;;;;7.03;0.90;;;19.50;70.10;;;;;;5032159;28;20245;-76
2022/08/27 03:22:59;;;;;;;2.30;0.90;;;20.00;70.10;;;;;;5042299;28;20180;-74
2022/08/27 03:25:27;;;;;;;1.40;0.80;;;20.00;69.80;;;;;;5034017;28;20263;-75
2022/08/27 03:27:55;;;;;;;3.53;1.03;;;20.30;68.50;;;;;;5035416;28;20172;-77
2022/08/27 03:30:23;;;;;;;2.53;0.90;;;20.50;66.70;;;;;;5039667;28;20784;-74
2022/08/27 03:32:51;;;;;;;2.67;0.60;;;21.00;66.70;;;;;;5030757;28;20294;-74
2022/08/27 03:35:19;;;;;;;2.87;1.00;;;21.30;64.30;;;;;;5037818;28;20260;-74
2022/08/27 03:37:47;;;;;;;4.07;0.87;;;21.90;62.60;;;;;;5039040;28;20181;-74
2022/08/27 03:40:16;;;;;;;2.10;0.73;;;22.30;58.80;;;;;;5036780;28;20231;-73
2022/08/27 03:42:43;;;;;;;1.70;0.60;;;22.20;60.80;;;;;;5032919;28;20189;-74
2022/08/27 03:45:12;;;;;;;2.70;0.60;;;22.30;58.60;;;;;;5031488;28;20285;-73
2022/08/27 03:47:39;;;;;;;2.40;0.90;;;22.60;57.40;;;;;;5038342;28;20176;-75
2022/08/27 03:50:07;;;;;;;1.90;0.60;;;22.80;56.20;;;;;;5034543;28;20188;-75
2022/08/27 03:52:36;;;;;;;0.87;0.60;;;22.70;56.50;;;;;;5036339;28;20179;-73
2022/08/27 03:55:06;;;;;;;3.73;0.53;;;22.80;57.70;;;;;;5033864;28;20280;-74
2022/08/27 03:57:34;;;;;;;2.87;0.70;;;22.30;58.60;;;;;;5033057;28;20180;-74
2022/08/27 04:00:01;;;;;;;2.80;0.90;;;22.00;57.90;;;;;;5029898;28;20220;-73
2022/08/27 04:02:28;;;;;;;2.00;1.17;;;21.10;63.70;;;;;;5035711;28;20243;-72
2022/08/27 04:04:56;;;;;;;3.63;0.93;;;21.10;62.40;;;;;;5031702;28;20220;-75
2022/08/27 04:07:24;;;;;;;2.43;0.70;;;21.10;62.50;;;;;;5032874;28;20184;-73
2022/08/27 04:09:51;;;;;;;1.40;0.83;;;20.60;63.70;;;;;;5033583;28;20613;-72
2022/08/27 04:12:18;;;;;;;4.17;1.00;;;21.30;63.10;;;;;;5034194;28;20266;-74
2022/08/27 04:14:46;;;;;;;5.47;1.00;;;22.60;60.00;;;;;;5030610;28;20199;-71
2022/08/27 04:17:13;;;;;;;4.17;1.50;;;22.90;59.40;;;;;;5032093;28;20212;-72
2022/08/27 04:19:41;;;;;;;2.70;1.00;;;23.90;54.50;;;;;;5033092;28;20191;-72
2022/08/27 04:22:08;;;;;;;3.80;0.90;;;23.50;54.60;;;;;;5034629;28;20270;-74
2022/08/27 04:24:37;;;;;;;3.97;0.77;;;22.20;58.00;;;;;;5036892;28;20207;-73
2022/08/27 04:27:06;;;;;;;3.93;0.77;;;21.80;59.90;;;;;;5034630;28;20246;-79
2022/08/27 04:29:33;;;;;;;3.80;0.90;;;22.30;59.40;;;;;;5037567;28;20188;-76
2022/08/27 04:32:01;;;;;;;4.83;1.20;;;23.00;56.80;;;;;;5037155;28;20189;-73
2022/08/27 04:34:29;;;;;;;3.50;1.00;;;22.40;59.60;;;;;;5030185;28;20571;-77
2022/08/27 04:36:57;;;;;;;4.03;0.97;;;22.30;59.90;;;;;;5032470;28;20192;-73
2022/08/27 04:39:26;;;;;;;3.53;1.10;;;21.10;63.10;;;;;;5033418;28;20231;-74
2022/08/27 04:42:03;;;;;;;4.77;1.10;;;20.60;64.60;;;;;;5084392;27;20546;-76
2022/08/27 04:44:33;;;;;;;3.83;1.00;;;20.50;65.50;;;;;;5076582;28;20186;-77
2022/08/27 04:47:02;;;;;;;1.63;0.70;;;21.90;62.10;;;;;;5087554;28;20179;-75
2022/08/27 04:49:30;;;;;;;2.40;1.00;;;22.80;57.40;;;;;;5081480;28;20178;-78
2022/08/27 04:51:57;;;;;;;1.20;0.50;;;22.00;58.10;;;;;;5088742;28;20174;-76
2022/08/27 04:54:25;;;;;;;1.80;0.60;;;21.40;57.90;;;;;;5090989;28;20178;-77
2022/08/27 04:56:53;;;;;;;3.30;0.80;;;21.00;59.70;;;;;;5092582;28;20520;-77
2022/08/27 04:59:20;;;;;;;4.07;0.70;;;20.60;63.00;;;;;;5084209;28;20175;-74
2022/08/27 05:01:48;;;;;;;2.67;0.80;;;20.70;61.60;;;;;;5083483;28;20218;-73
2022/08/27 05:04:20;;;;;;;3.70;0.80;;;21.20;62.40;;;;;;5091912;28;20182;-75
2022/08/27 05:06:49;;;;;;;1.90;0.80;;;20.80;61.50;;;;;;5085641;28;20247;-73
2022/08/27 05:09:18;;;;;;;2.23;0.90;;;20.50;63.60;;;;;;5083607;28;20183;-72
2022/08/27 05:11:45;;;;;;;1.87;0.70;;;20.80;63.00;;;;;;5081486;28;20205;-73
2022/08/27 05:14:15;;;;;;;3.10;1.00;;;21.50;59.80;;;;;;5080427;28;20766;-73
2022/08/27 05:16:42;;;;;;;3.40;0.60;;;22.00;58.30;;;;;;5085933;28;20270;-78
2022/08/27 05:19:15;;;;;;;4.27;0.80;;;21.90;57.20;;;;;;5084339;28;20265;-75
2022/08/27 05:21:48;;;;;;;3.43;0.80;;;22.30;54.90;;;;;;5085598;28;20649;-73
2022/08/27 05:24:16;;;;;;;2.77;1.40;;;22.80;54.10;;;;;;5088403;28;20193;-75
2022/08/27 05:26:45;;;;;;;6.50;5.27;;;22.10;57.10;;;;;;5087485;28;20652;-75
2022/08/27 05:29:13;;;;;;;3.47;1.50;;;21.30;59.20;;;;;;5083233;28;20708;-75
2022/08/27 05:31:41;;;;;;;5.77;4.07;;;20.50;61.20;;;;;;5089140;28;20261;-73
2022/08/27 05:34:08;;;;;;;4.27;2.30;;;20.20;63.30;;;;;;5082820;28;20186;-75
2022/08/27 05:36:36;;;;;;;6.90;3.97;;;20.30;63.20;;;;;;5079047;28;20195;-73
2022/08/27 05:39:05;;;;;;;3.37;1.50;;;20.20;65.10;;;;;;5088691;28;20684;-74
2022/08/27 05:41:33;;;;;;;2.37;0.83;;;20.20;65.90;;;;;;5081296;28;20790;-74
2022/08/27 05:44:08;;;;;;;4.30;1.13;;;20.40;64.50;;;;;;5081557;28;20288;-73
2022/08/27 05:46:37;;;;;;;5.13;4.63;;;20.50;65.10;;;;;;5088049;28;20174;-73
2022/08/27 05:49:05;;;;;;;8.10;2.63;;;20.40;64.60;;;;;;5086902;28;20179;-76
2022/08/27 05:51:35;;;;;;;4.07;1.20;;;20.20;65.70;;;;;;5080369;28;20179;-75
2022/08/27 05:54:05;;;;;;;4.90;2.87;;;19.90;65.30;;;;;;5069657;28;20249;-76
2022/08/27 05:56:35;;;;;;;8.13;4.80;;;19.20;66.00;;;;;;5069107;28;20214;-75
2022/08/27 06:01:51;;;;;;;5.83;3.33;;;18.80;66.10;;;;;;5073645;28;20233;-74
2022/08/27 06:04:20;;;;;;;5.67;1.77;;;19.00;63.90;;;;;;5073681;28;20260;-76
2022/08/27 06:06:48;;;;;;;4.37;3.07;;;18.80;66.00;;;;;;5069532;28;20567;-76
2022/08/27 06:09:22;;;;;;;3.33;1.73;;;18.40;68.40;;;;;;5068893;28;20614;-75
2022/08/27 06:11:49;;;;;;;6.37;3.57;;;18.80;67.00;;;;;;5069936;28;20167;-79
2022/08/27 06:14:16;;;;;;;4.23;1.87;;;19.30;64.20;;;;;;5064804;28;20179;-74
2022/08/27 06:16:44;;;;;;;5.10;1.37;;;20.60;61.40;;;;;;5070538;28;20254;-75
2022/08/27 06:19:11;;;;;;;3.90;1.70;;;21.80;57.80;;;;;;5074408;28;20186;-74
2022/08/27 06:21:40;;;;;;;6.23;1.43;;;22.50;54.70;;;;;;5068884;28;20317;-75
2022/08/27 06:24:10;;;;;;;3.93;1.40;;;23.00;51.80;;;;;;5068964;28;20195;-75
2022/08/27 06:26:41;;;;;;;1.80;1.17;;;22.80;52.60;;;;;;5066418;28;20187;-77
2022/08/27 06:29:09;;;;;;;4.40;1.20;;;22.30;52.90;;;;;;5072154;28;20172;-75
2022/08/27 06:31:37;;;;;;;1.37;0.80;;;21.80;55.10;;;;;;5074443;28;20281;-74
2022/08/27 06:34:07;;;;;;;5.10;1.10;;;22.10;54.30;;;;;;5068112;28;20187;-77
2022/08/27 06:36:37;;;;;;;4.80;1.10;;;20.90;57.40;;;;;;5072561;28;20183;-77
2022/08/27 06:39:06;;;;;;;5.27;1.30;;;20.00;61.00;;;;;;5066308;28;20194;-75
2022/08/27 06:41:34;;;;;;;2.77;0.90;;;19.10;64.00;;;;;;5070634;28;20226;-74
2022/08/27 06:44:01;;;;;;;2.77;0.90;;;18.80;65.30;;;;;;5061403;28;20191;-76
2022/08/27 06:46:29;;;;;;;3.07;1.00;;;18.30;67.80;;;;;;5067143;28;20216;-74
2022/08/27 06:48:59;;;;;;;3.87;1.10;;;18.20;69.00;;;;;;5070287;28;20195;-74
2022/08/27 06:51:34;;;;;;;4.77;1.17;;;17.80;69.50;;;;;;5064557;28;20194;-74
2022/08/27 06:54:05;;;;;;;4.33;1.10;;;17.70;70.90;;;;;;5071682;28;20559;-73
2022/08/27 06:56:33;;;;;;;2.70;0.90;;;17.60;71.50;;;;;;5069526;28;20642;-74
2022/08/27 06:59:04;;;;;;;6.10;1.37;;;17.30;72.90;;;;;;5069736;28;20558;-75
2022/08/27 07:01:35;;;;;;;3.27;1.73;;;17.10;73.20;;;;;;5060527;28;20730;-74
2022/08/27 07:04:08;;;;;;;3.70;1.07;;;17.20;74.10;;;;;;5070577;28;20195;-74
2022/08/27 07:06:38;;;;;;;4.77;1.00;;;17.00;74.70;;;;;;5064279;28;20245;-75
2022/08/27 07:09:06;;;;;;;4.87;1.07;;;17.00;74.70;;;;;;5069140;28;20634;-75
2022/08/27 07:11:34;;;;;;;6.60;1.27;;;16.90;74.90;;;;;;5071150;28;20264;-74
2022/08/27 07:14:02;;;;;;;4.57;1.03;;;16.90;75.20;;;;;;5063050;28;20197;-73
2022/08/27 07:16:29;;;;;;;2.57;1.07;;;16.80;75.40;;;;;;5073169;28;20276;-74
2022/08/27 07:18:59;;;;;;;7.03;1.50;;;16.70;75.50;;;;;;5065212;28;20187;-72
2022/08/27 07:21:27;;;;;;;3.60;1.20;;;16.60;76.00;;;;;;5069600;28;20307;-73
2022/08/27 07:24:03;;;;;;;4.43;1.47;;;16.60;76.60;;;;;;5069849;28;20589;-75
2022/08/27 07:26:33;;;;;;;3.43;1.40;;;16.40;77.20;;;;;;5067487;28;20187;-74
2022/08/27 07:29:01;;;;;;;4.73;1.50;;;16.30;77.90;;;;;;5069479;28;20182;-74
2022/08/27 07:31:28;;;;;;;4.03;1.60;;;16.20;78.20;;;;;;5073145;28;20189;-74
2022/08/27 07:33:56;;;;;;;3.70;1.40;;;16.20;78.50;;;;;;5065732;28;20595;-75
2022/08/27 07:36:24;;;;;;;3.63;1.43;;;16.10;78.80;;;;;;5063930;28;20225;-74
2022/08/27 07:38:52;;;;;;;3.03;1.27;;;16.00;78.70;;;;;;5069236;28;20199;-74
2022/08/27 07:41:20;;;;;;;3.00;1.20;;;15.90;79.00;;;;;;5069329;28;20725;-74
2022/08/27 07:46:33;;;;;;;3.27;1.87;;;15.80;79.70;;;;;;5072292;28;20200;-75
2022/08/27 07:49:00;;;;;;;5.47;2.00;;;15.70;79.70;;;;;;5071802;28;20185;-75
2022/08/27 07:51:31;;;;;;;3.23;1.77;;;15.60;80.20;;;;;;5069734;28;20272;-74
2022/08/27 07:53:59;;;;;;;9.43;2.70;;;15.50;80.40;;;;;;5069514;28;20185;-76
2022/08/27 07:56:26;;;;;;;4.90;2.30;;;15.40;80.90;;;;;;5067370;28;20186;-74
2022/08/27 07:58:53;;;;;;;5.70;2.50;;;15.30;81.20;;;;;;5065837;28;20200;-74
2022/08/27 08:01:22;;;;;;;7.33;3.17;;;15.30;81.50;;;;;;5064810;28;20217;-73
2022/08/27 08:03:50;;;;;;;8.90;2.90;;;15.20;81.40;;;;;;5060915;28;20216;-72
2022/08/27 08:06:18;;;;;;;6.93;3.00;;;15.20;81.90;;;;;;5067016;28;20279;-72
2022/08/27 08:08:45;;;;;;;9.50;3.57;;;15.20;82.10;;;;;;5071799;28;20193;-73
2022/08/27 08:11:15;;;;;;;8.30;3.80;;;15.10;82.30;;;;;;5067651;28;20271;-73
2022/08/27 08:13:44;;;;;;;9.73;4.20;;;15.10;82.70;;;;;;5068005;28;20188;-73
2022/08/27 08:16:12;;;;;;;8.80;4.07;;;15.00;82.80;;;;;;5067858;28;20274;-74
2022/08/27 08:18:39;;;;;;;7.70;4.60;;;15.00;83.10;;;;;;5066838;28;20225;-74
2022/08/27 08:21:10;;;;;;;9.80;4.10;;;14.90;83.40;;;;;;5066816;28;20550;-74
2022/08/27 08:23:38;;;;;;;7.60;4.73;;;14.90;84.00;;;;;;5061902;28;20181;-74
2022/08/27 08:26:07;;;;;;;7.60;4.10;;;14.80;84.20;;;;;;5068561;28;20188;-73
2022/08/27 08:28:35;;;;;;;10.03;4.20;;;14.80;84.40;;;;;;5070339;28;20187;-74
2022/08/27 08:31:03;;;;;;;10.13;4.27;;;14.80;84.60;;;;;;5069004;28;20184;-74
2022/08/27 08:33:31;;;;;;;10.87;6.00;;;14.70;84.60;;;;;;5070527;28;20178;-75
2022/08/27 08:36:08;;;;;;;14.50;5.90;;;14.70;84.80;;;;;;5070496;28;20176;-74
2022/08/27 08:38:36;;;;;;;11.20;6.40;;;14.70;85.00;;;;;;5071774;28;20221;-74
2022/08/27 08:41:06;;;;;;;13.27;6.13;;;14.60;85.20;;;;;;5068814;28;20284;-74
2022/08/27 08:43:48;;;;;;;10.73;5.43;;;14.60;85.30;;;;;;5065388;28;20176;-74
2022/08/27 08:46:21;;;;;;;9.67;4.83;;;14.50;85.40;;;;;;5069020;28;20700;-74
2022/08/27 08:48:52;;;;;;;9.17;4.90;;;14.50;85.40;;;;;;5068505;28;20287;-74
2022/08/27 08:51:28;;;;;;;12.10;6.37;;;14.50;85.70;;;;;;5069889;28;20586;-74
2022/08/27 08:54:05;;;;;;;17.00;9.43;;;14.50;86.10;;;;;;5067405;28;20223;-74
2022/08/27 08:56:46;;;;;;;11.43;6.43;;;14.40;86.10;;;;;;5070078;28;20184;-74
2022/08/27 08:59:27;;;;;;;12.40;6.17;;;14.40;86.10;;;;;;5070689;28;20618;-74
2022/08/27 09:01:54;;;;;;;9.30;5.20;;;14.30;86.40;;;;;;5061275;28;20238;-75
2022/08/27 09:04:25;;;;;;;10.30;5.60;;;14.30;86.50;;;;;;5071233;28;20184;-74
2022/08/27 09:06:56;;;;;;;11.57;5.10;;;14.30;86.60;;;;;;5071464;28;20638;-74
2022/08/27 09:09:49;;;;;;;12.93;5.73;;;14.30;86.80;;;;;;5070730;28;20175;-75
2022/08/27 09:12:23;;;;;;;10.80;5.63;;;14.20;86.80;;;;;;5063757;28;20562;-75
2022/08/27 09:15:09;;;;;;;17.17;6.67;;;14.20;87.10;;;;;;5071865;28;20187;-75
2022/08/27 09:17:37;;;;;;;19.37;8.03;;;14.20;87.10;;;;;;5070880;28;20210;-75
2022/08/27 09:20:07;;;;;;;19.97;9.03;;;14.20;87.50;;;;;;5070573;28;20214;-74
2022/08/27 09:22:44;;;;;;;22.67;10.50;;;14.10;87.40;;;;;;5067875;28;20644;-74
2022/08/27 09:25:31;;;;;;;15.70;8.67;;;14.00;87.50;;;;;;5067584;28;20641;-74
2022/08/27 09:28:03;;;;;;;14.97;7.83;;;14.00;87.70;;;;;;5071194;28;20202;-74
2022/08/27 09:30:41;;;;;;;14.90;6.87;;;14.00;87.60;;;;;;5073000;28;20232;-74
2022/08/27 09:33:08;;;;;;;19.40;7.20;;;14.00;87.80;;;;;;5070038;28;20589;-75
2022/08/27 09:35:43;;;;;;;19.30;8.90;;;14.00;87.90;;;;;;5072835;28;20202;-74
2022/08/27 09:38:19;;;;;;;12.87;6.83;;;14.00;87.80;;;;;;5074489;28;20183;-75
2022/08/27 09:40:51;;;;;;;16.50;8.27;;;13.90;87.90;;;;;;5069437;28;21439;-75
2022/08/27 09:43:25;;;;;;;19.50;8.27;;;13.90;87.90;;;;;;5071351;28;20187;-75
2022/08/27 09:45:56;;;;;;;19.00;9.07;;;13.90;88.10;;;;;;5068775;28;20191;-75
2022/08/27 09:48:36;;;;;;;17.23;8.53;;;13.80;88.20;;;;;;5072274;28;20183;-76
2022/08/27 09:51:28;;;;;;;19.73;9.10;;;13.80;88.10;;;;;;5070358;28;20175;-75
2022/08/27 09:54:03;;;;;;;16.57;9.23;;;13.80;88.20;;;;;;5067274;28;20191;-75
2022/08/27 09:56:36;;;;;;;17.07;8.57;;;13.70;88.30;;;;;;5070288;28;20183;-74
2022/08/27 09:59:34;;;;;;;16.37;8.80;;;13.70;88.50;;;;;;5070764;28;20620;-75
2022/08/27 10:02:22;;;;;;;17.67;10.10;;;13.70;88.40;;;;;;5068722;28;20303;-75
2022/08/27 10:04:53;;;;;;;21.37;10.87;;;13.70;88.60;;;;;;5069899;28;20198;-74
2022/08/27 10:07:35;;;;;;;19.57;10.23;;;13.70;88.70;;;;;;5071585;28;20187;-75
2022/08/27 10:10:43;;;;;;;21.00;9.93;;;13.70;88.80;;;;;;5074683;28;20191;-75
2022/08/27 10:13:52;;;;;;;21.10;9.63;;;13.70;88.80;;;;;;5029373;28;20698;-74
2022/08/27 10:16:51;;;;;;;13.90;8.67;;;13.60;88.90;;;;;;4954711;29;20242;-74
2022/08/27 10:20:00;;;;;;;15.57;8.63;;;13.50;89.10;;;;;;5018008;28;20321;-75
2022/08/27 10:22:40;;;;;;;16.47;8.07;;;13.50;89.10;;;;;;5070148;28;20194;-74
2022/08/27 10:25:29;;;;;;;16.43;7.43;;;13.40;89.40;;;;;;5073659;28;20179;-75
2022/08/27 10:28:26;;;;;;;10.93;6.30;;;13.50;89.40;;;;;;5073434;28;20189;-75
2022/08/27 10:31:15;;;;;;;13.67;7.30;;;13.30;89.30;;;;;;5068864;28;20226;-75
2022/08/27 10:33:58;;;;;;;12.97;7.23;;;13.30;89.40;;;;;;5074685;28;20278;-74
2022/08/27 10:36:45;;;;;;;11.93;8.00;;;13.30;89.50;;;;;;5073150;28;20214;-74
2022/08/27 10:39:49;;;;;;;12.43;7.03;;;13.20;89.30;;;;;;5073932;28;20190;-74
2022/08/27 10:42:47;;;;;;;15.00;8.07;;;13.20;89.70;;;;;;5073272;28;20278;-74
2022/08/27 10:45:44;;;;;;;14.03;7.97;;;13.10;89.70;;;;;;5062482;28;20654;-74
2022/08/27 10:48:23;;;;;;;16.73;9.23;;;13.10;89.80;;;;;;5070179;28;20189;-74
2022/08/27 10:51:17;;;;;;;13.20;9.00;;;13.10;90.10;;;;;;5065828;28;20218;-74
2022/08/27 10:54:03;;;;;;;13.77;8.00;;;13.00;89.90;;;;;;5063456;28;20168;-75
2022/08/27 10:56:44;;;;;;;14.57;8.67;;;13.00;90.00;;;;;;5071384;28;20187;-74
2022/08/27 10:59:18;;;;;;;17.67;8.27;;;13.00;90.00;;;;;;5069509;28;20248;-75
2022/08/27 11:02:09;;;;;;;13.10;8.30;;;13.00;90.10;;;;;;5068867;28;20217;-75
2022/08/27 11:04:46;;;;;;;13.40;7.80;;;13.00;90.20;;;;;;5072056;28;20584;-74
2022/08/27 11:07:32;;;;;;;12.17;8.17;;;13.00;90.30;;;;;;5067785;28;20803;-74
2022/08/27 11:10:04;;;;;;;13.07;8.00;;;13.00;90.40;;;;;;5068424;28;20178;-74
2022/08/27 11:12:41;;;;;;;14.37;8.10;;;13.10;90.40;;;;;;5068671;28;20184;-74
2022/08/27 11:15:30;;;;;;;13.20;7.87;;;13.10;90.30;;;;;;5071744;28;20220;-74
2022/08/27 11:18:01;;;;;;;13.87;8.00;;;13.10;90.40;;;;;;5071489;28;20240;-73
2022/08/27 11:20:47;;;;;;;16.77;8.27;;;13.10;90.20;;;;;;5076932;28;20672;-74
2022/08/27 11:23:39;;;;;;;11.93;7.53;;;13.00;90.20;;;;;;5069413;28;20191;-74
2022/08/27 11:26:07;;;;;;;13.47;8.70;;;13.10;90.50;;;;;;5060971;28;20227;-74
2022/08/27 11:28:57;;;;;;;20.60;8.67;;;13.10;90.30;;;;;;5072635;28;20240;-74
2022/08/27 11:31:44;;;;;;;12.67;8.20;;;13.20;90.60;;;;;;5068366;28;20262;-74
2022/08/27 11:34:42;;;;;;;21.77;9.13;;;13.30;90.50;;;;;;5069872;28;20664;-76
2022/08/27 11:37:32;;;;;;;18.67;8.90;;;13.30;90.50;;;;;;5067350;28;20190;-77
2022/08/27 11:40:37;;;;;;;18.97;8.57;;;13.40;90.60;;;;;;5065481;28;20207;-79
2022/08/27 11:43:29;;;;;;;14.37;8.83;;;13.30;90.40;;;;;;5064424;28;20262;-78
2022/08/27 11:46:06;;;;;;;11.20;7.87;;;13.30;90.60;;;;;;5069860;28;20191;-78
2022/08/27 11:48:39;;;;;;;19.87;8.97;;;13.30;91.00;;;;;;5067778;28;20218;-77
2022/08/27 11:51:11;;;;;;;12.70;8.37;;;13.30;90.90;;;;;;5069915;28;20175;-78
2022/08/27 11:54:00;;;;;;;11.57;8.13;;;13.40;90.90;;;;;;5063903;28;20278;-78
2022/08/27 11:56:37;;;;;;;16.27;9.93;;;13.40;90.90;;;;;;5065406;28;20601;-79
2022/08/27 11:59:31;;;;;;;18.27;10.67;;;13.50;91.00;;;;;;5066110;28;20548;-79
2022/08/27 12:02:26;;;;;;;18.50;10.30;;;13.40;90.90;;;;;;5061921;28;20214;-78
2022/08/27 12:05:06;;;;;;;14.17;10.33;;;13.50;91.30;;;;;;5068055;28;20259;-79
2022/08/27 12:07:38;;;;;;;14.10;8.60;;;13.50;91.20;;;;;;5065904;28;20175;-85
2022/08/27 12:10:34;;;;;;;17.27;9.43;;;13.50;91.20;;;;;;5067669;28;20183;-79
2022/08/27 12:13:13;;;;;;;10.67;5.93;;;13.50;91.20;;;;;;5062495;28;20669;-76
2022/08/27 12:15:49;;;;;;;13.10;8.40;;;13.40;91.30;;;;;;5069304;28;20775;-77
2022/08/27 12:18:51;;;;;;;15.60;8.70;;;13.50;91.50;;;;;;5070537;28;20179;-76
2022/08/27 12:21:32;;;;;;;13.97;9.47;;;13.50;91.60;;;;;;5020044;28;20238;-76
2022/08/27 12:24:26;;;;;;;11.73;8.00;;;13.60;91.60;;;;;;5065320;28;20268;-77
2022/08/27 12:27:13;;;;;;;12.17;7.30;;;13.50;91.70;;;;;;5071544;28;20194;-76
2022/08/27 12:29:42;;;;;;;13.47;8.13;;;13.60;91.80;;;;;;5068158;28;20187;-76
2022/08/27 12:32:29;;;;;;;10.27;7.53;;;13.50;91.70;;;;;;5067806;28;20673;-77
2022/08/27 12:35:09;;;;;;;12.17;7.23;;;13.50;91.70;;;;;;5069220;28;20738;-76
2022/08/27 12:37:47;;;;;;;11.47;6.40;;;13.50;91.80;;;;;;5070639;28;20231;-77
2022/08/27 12:40:42;;;;;;;10.60;6.63;;;13.40;91.80;;;;;;5069959;28;20223;-77
2022/08/27 12:43:13;;;;;;;10.00;6.33;;;13.40;91.80;;;;;;5071075;28;20236;-80
2022/08/27 12:46:08;;;;;;;13.50;6.47;;;13.40;91.90;;;;;;5067690;28;20576;-78
2022/08/27 12:48:57;;;;;;;9.93;6.20;;;13.40;91.80;;;;;;5059303;28;20183;-79
2022/08/27 12:51:30;;;;;;;11.60;6.77;;;13.30;91.90;;;;;;5064447;28;20175;-80
2022/08/27 12:54:01;;;;;;;9.47;7.13;;;13.30;92.00;;;;;;5059566;28;20627;-79
2022/08/27 12:57:08;;;;;;;11.03;7.30;;;13.40;92.10;;;;;;5065559;28;20186;-78
2022/08/27 12:59:52;;;;;;;13.87;7.40;;;13.30;92.30;;;;;;5073796;28;20222;-79
2022/08/27 13:02:44;;;;;;;11.30;6.90;;;13.30;92.30;;;;;;5062020;28;20269;-78
2022/08/27 13:05:12;;;;;;;9.67;6.60;;;13.40;92.40;;;;;;5067885;28;20258;-79
2022/08/27 13:07:43;;;;;;;10.97;7.20;;;13.30;92.40;;;;;;5066983;28;20184;-77
2022/08/27 13:10:29;;;;;;;10.33;7.07;;;13.30;92.40;;;;;;5068030;28;20175;-80
2022/08/27 13:13:11;;;;;;;11.20;6.90;;;13.30;92.40;;;;;;5068730;28;20183;-79
2022/08/27 13:16:04;;;;;;;11.43;6.90;;;13.20;92.30;;;;;;5070628;28;20183;-79
2022/08/27 13:18:32;;;;;;;10.60;7.03;;;13.10;92.40;;;;;;5068695;28;20191;-79
2022/08/27 13:21:07;;;;;;;12.20;8.03;;;13.10;92.50;;;;;;5070169;28;20218;-79
2022/08/27 13:23:35;;;;;;;11.80;7.03;;;13.00;92.50;;;;;;5073812;28;20183;-80